sensor_id;sensor_type;location;lat;lon;timestamp;P1;durP1;ratioP1;P2;durP2;ratioP2
34988;SDS011;21192;40.182;44.516;2023-06-14T00:00:51;24.13;;;8.70;;
34988;SDS011;21192;40.182;44.516;2023-06-14T00:03:17;21.25;;;8.15;;
34988;SDS011;21192;40.182;44.516;2023-06-14T00:05:47;17.70;;;7.72;;
34988;SDS011;21192;40.182;44.516;2023-06-14T00:08:13;28.75;;;7.45;;
34988;SDS011;21192;40.182;44.516;2023-06-14T00:10:40;19.30;;;8.30;;
34988;SDS011;21192;40.182;44.516;2023-06-14T00:13:09;29.05;;;8.43;;
34988;SDS011;21192;40.182;44.516;2023-06-14T00:15:35;16.42;;;7.05;;
34988;SDS011;21192;40.182;44.516;2023-06-14T00:18:01;22.83;;;7.05;;
34988;SDS011;21192;40.182;44.516;2023-06-14T00:20:28;20.90;;;7.53;;
34988;SDS011;21192;40.182;44.516;2023-06-14T00:22:55;19.65;;;7.70;;
34988;SDS011;21192;40.182;44.516;2023-06-14T00:25:22;23.20;;;7.35;;
34988;SDS011;21192;40.182;44.516;2023-06-14T00:27:50;21.90;;;7.88;;
34988;SDS011;21192;40.182;44.516;2023-06-14T00:30:16;22.05;;;6.93;;
34988;SDS011;21192;40.182;44.516;2023-06-14T00:32:43;23.00;;;8.70;;
34988;SDS011;21192;40.182;44.516;2023-06-14T00:35:09;26.65;;;8.57;;
34988;SDS011;21192;40.182;44.516;2023-06-14T00:37:35;21.25;;;8.18;;
34988;SDS011;21192;40.182;44.516;2023-06-14T00:40:01;22.38;;;8.27;;
34988;SDS011;21192;40.182;44.516;2023-06-14T00:42:29;19.95;;;7.93;;
34988;SDS011;21192;40.182;44.516;2023-06-14T00:44:55;23.98;;;8.32;;
34988;SDS011;21192;40.182;44.516;2023-06-14T00:47:22;24.15;;;8.57;;
34988;SDS011;21192;40.182;44.516;2023-06-14T00:49:49;24.60;;;7.55;;
34988;SDS011;21192;40.182;44.516;2023-06-14T00:52:18;25.40;;;8.40;;
34988;SDS011;21192;40.182;44.516;2023-06-14T00:54:45;25.45;;;8.55;;
34988;SDS011;21192;40.182;44.516;2023-06-14T00:57:12;26.00;;;8.18;;
34988;SDS011;21192;40.182;44.516;2023-06-14T00:59:41;25.92;;;7.45;;
34988;SDS011;21192;40.182;44.516;2023-06-14T01:02:09;23.90;;;8.05;;
34988;SDS011;21192;40.182;44.516;2023-06-14T01:04:35;26.80;;;7.32;;
34988;SDS011;21192;40.182;44.516;2023-06-14T01:07:07;25.15;;;6.80;;
34988;SDS011;21192;40.182;44.516;2023-06-14T01:12:35;23.63;;;7.20;;
34988;SDS011;21192;40.182;44.516;2023-06-14T01:15:02;24.63;;;7.25;;
34988;SDS011;21192;40.182;44.516;2023-06-14T01:17:29;26.40;;;6.80;;
34988;SDS011;21192;40.182;44.516;2023-06-14T01:19:57;28.48;;;7.72;;
34988;SDS011;21192;40.182;44.516;2023-06-14T01:22:28;27.27;;;6.70;;
34988;SDS011;21192;40.182;44.516;2023-06-14T01:24:54;25.55;;;7.53;;
34988;SDS011;21192;40.182;44.516;2023-06-14T01:27:23;26.20;;;6.97;;
34988;SDS011;21192;40.182;44.516;2023-06-14T01:29:53;27.33;;;8.27;;
34988;SDS011;21192;40.182;44.516;2023-06-14T01:32:24;21.98;;;8.32;;
34988;SDS011;21192;40.182;44.516;2023-06-14T01:34:53;24.05;;;8.93;;
34988;SDS011;21192;40.182;44.516;2023-06-14T01:37:19;27.08;;;9.73;;
34988;SDS011;21192;40.182;44.516;2023-06-14T01:39:47;20.50;;;8.45;;
34988;SDS011;21192;40.182;44.516;2023-06-14T01:42:14;20.60;;;8.45;;
34988;SDS011;21192;40.182;44.516;2023-06-14T01:44:41;21.38;;;8.38;;
34988;SDS011;21192;40.182;44.516;2023-06-14T01:47:09;21.73;;;8.23;;
34988;SDS011;21192;40.182;44.516;2023-06-14T01:49:35;25.38;;;8.10;;
34988;SDS011;21192;40.182;44.516;2023-06-14T01:52:03;23.80;;;7.65;;
34988;SDS011;21192;40.182;44.516;2023-06-14T01:54:29;22.20;;;7.50;;
34988;SDS011;21192;40.182;44.516;2023-06-14T01:56:56;19.67;;;7.43;;
34988;SDS011;21192;40.182;44.516;2023-06-14T01:59:22;20.35;;;7.38;;
34988;SDS011;21192;40.182;44.516;2023-06-14T02:01:47;18.75;;;5.95;;
34988;SDS011;21192;40.182;44.516;2023-06-14T02:04:13;17.90;;;6.20;;
34988;SDS011;21192;40.182;44.516;2023-06-14T02:06:39;19.92;;;7.35;;
34988;SDS011;21192;40.182;44.516;2023-06-14T02:09:05;33.55;;;15.35;;
34988;SDS011;21192;40.182;44.516;2023-06-14T02:11:31;19.33;;;8.02;;
34988;SDS011;21192;40.182;44.516;2023-06-14T02:13:57;27.73;;;7.55;;
34988;SDS011;21192;40.182;44.516;2023-06-14T02:16:25;21.75;;;6.65;;
34988;SDS011;21192;40.182;44.516;2023-06-14T02:18:53;21.70;;;6.57;;
34988;SDS011;21192;40.182;44.516;2023-06-14T02:21:19;18.23;;;6.65;;
34988;SDS011;21192;40.182;44.516;2023-06-14T02:23:45;18.92;;;6.93;;
34988;SDS011;21192;40.182;44.516;2023-06-14T02:26:11;14.35;;;6.38;;
34988;SDS011;21192;40.182;44.516;2023-06-14T02:28:37;20.52;;;6.40;;
34988;SDS011;21192;40.182;44.516;2023-06-14T02:31:02;18.27;;;6.70;;
34988;SDS011;21192;40.182;44.516;2023-06-14T02:33:28;18.30;;;6.60;;
34988;SDS011;21192;40.182;44.516;2023-06-14T02:35:54;15.77;;;6.00;;
34988;SDS011;21192;40.182;44.516;2023-06-14T02:38:21;25.52;;;11.57;;
34988;SDS011;21192;40.182;44.516;2023-06-14T02:40:47;37.13;;;17.23;;
34988;SDS011;21192;40.182;44.516;2023-06-14T02:43:13;20.27;;;6.72;;
34988;SDS011;21192;40.182;44.516;2023-06-14T02:45:40;26.73;;;6.70;;
34988;SDS011;21192;40.182;44.516;2023-06-14T02:48:06;22.02;;;7.32;;
34988;SDS011;21192;40.182;44.516;2023-06-14T02:50:31;23.80;;;7.60;;
34988;SDS011;21192;40.182;44.516;2023-06-14T02:52:57;20.00;;;8.68;;
34988;SDS011;21192;40.182;44.516;2023-06-14T02:55:23;21.23;;;8.13;;
34988;SDS011;21192;40.182;44.516;2023-06-14T02:57:49;22.48;;;8.10;;
34988;SDS011;21192;40.182;44.516;2023-06-14T03:00:16;20.25;;;6.95;;
34988;SDS011;21192;40.182;44.516;2023-06-14T03:02:42;24.63;;;7.13;;
34988;SDS011;21192;40.182;44.516;2023-06-14T03:05:08;21.00;;;7.45;;
34988;SDS011;21192;40.182;44.516;2023-06-14T03:07:35;20.73;;;7.30;;
34988;SDS011;21192;40.182;44.516;2023-06-14T03:10:06;17.73;;;6.68;;
34988;SDS011;21192;40.182;44.516;2023-06-14T03:12:35;19.88;;;5.75;;
34988;SDS011;21192;40.182;44.516;2023-06-14T03:15:01;17.40;;;6.90;;
34988;SDS011;21192;40.182;44.516;2023-06-14T03:17:28;19.27;;;6.68;;
34988;SDS011;21192;40.182;44.516;2023-06-14T03:19:55;20.40;;;6.10;;
34988;SDS011;21192;40.182;44.516;2023-06-14T03:22:21;16.38;;;5.80;;
34988;SDS011;21192;40.182;44.516;2023-06-14T03:24:47;22.83;;;5.70;;
34988;SDS011;21192;40.182;44.516;2023-06-14T03:27:13;15.70;;;5.00;;
34988;SDS011;21192;40.182;44.516;2023-06-14T03:29:39;17.67;;;5.95;;
34988;SDS011;21192;40.182;44.516;2023-06-14T03:32:05;23.05;;;5.43;;
34988;SDS011;21192;40.182;44.516;2023-06-14T03:34:31;22.60;;;6.05;;
34988;SDS011;21192;40.182;44.516;2023-06-14T03:36:57;17.67;;;5.85;;
34988;SDS011;21192;40.182;44.516;2023-06-14T03:39:22;17.77;;;6.65;;
34988;SDS011;21192;40.182;44.516;2023-06-14T03:41:48;18.20;;;6.68;;
34988;SDS011;21192;40.182;44.516;2023-06-14T03:44:15;17.52;;;6.50;;
34988;SDS011;21192;40.182;44.516;2023-06-14T03:46:43;17.80;;;6.13;;
34988;SDS011;21192;40.182;44.516;2023-06-14T03:49:10;23.85;;;6.57;;
34988;SDS011;21192;40.182;44.516;2023-06-14T03:51:36;21.42;;;6.15;;
34988;SDS011;21192;40.182;44.516;2023-06-14T03:54:02;19.27;;;6.05;;
34988;SDS011;21192;40.182;44.516;2023-06-14T03:56:28;23.48;;;5.80;;
34988;SDS011;21192;40.182;44.516;2023-06-14T03:58:54;14.68;;;5.07;;
34988;SDS011;21192;40.182;44.516;2023-06-14T04:01:21;13.50;;;4.30;;
34988;SDS011;21192;40.182;44.516;2023-06-14T04:03:52;12.15;;;3.80;;
34988;SDS011;21192;40.182;44.516;2023-06-14T04:06:18;13.00;;;3.78;;
34988;SDS011;21192;40.182;44.516;2023-06-14T04:08:45;10.38;;;3.97;;
34988;SDS011;21192;40.182;44.516;2023-06-14T04:11:11;12.88;;;4.43;;
34988;SDS011;21192;40.182;44.516;2023-06-14T04:13:36;14.45;;;4.63;;
34988;SDS011;21192;40.182;44.516;2023-06-14T04:16:04;24.60;;;7.03;;
34988;SDS011;21192;40.182;44.516;2023-06-14T04:18:30;16.63;;;5.80;;
34988;SDS011;21192;40.182;44.516;2023-06-14T04:20:56;13.00;;;5.10;;
34988;SDS011;21192;40.182;44.516;2023-06-14T04:23:21;14.45;;;5.60;;
34988;SDS011;21192;40.182;44.516;2023-06-14T04:25:48;19.70;;;5.82;;
34988;SDS011;21192;40.182;44.516;2023-06-14T04:28:14;20.42;;;6.28;;
34988;SDS011;21192;40.182;44.516;2023-06-14T04:30:43;23.77;;;6.82;;
34988;SDS011;21192;40.182;44.516;2023-06-14T04:33:10;16.67;;;6.10;;
34988;SDS011;21192;40.182;44.516;2023-06-14T04:35:36;20.30;;;7.03;;
34988;SDS011;21192;40.182;44.516;2023-06-14T04:38:05;19.77;;;7.28;;
34988;SDS011;21192;40.182;44.516;2023-06-14T04:40:34;24.70;;;7.75;;
34988;SDS011;21192;40.182;44.516;2023-06-14T04:43:07;19.35;;;7.70;;
34988;SDS011;21192;40.182;44.516;2023-06-14T04:45:35;23.65;;;7.18;;
34988;SDS011;21192;40.182;44.516;2023-06-14T04:48:02;19.90;;;7.75;;
34988;SDS011;21192;40.182;44.516;2023-06-14T04:50:27;20.08;;;7.57;;
34988;SDS011;21192;40.182;44.516;2023-06-14T04:52:54;19.63;;;7.78;;
34988;SDS011;21192;40.182;44.516;2023-06-14T04:55:22;24.42;;;8.40;;
34988;SDS011;21192;40.182;44.516;2023-06-14T04:57:47;21.05;;;7.78;;
34988;SDS011;21192;40.182;44.516;2023-06-14T05:00:14;24.25;;;8.13;;
34988;SDS011;21192;40.182;44.516;2023-06-14T05:02:40;22.33;;;8.63;;
34988;SDS011;21192;40.182;44.516;2023-06-14T05:05:06;23.17;;;8.85;;
34988;SDS011;21192;40.182;44.516;2023-06-14T05:07:32;19.33;;;7.15;;
34988;SDS011;21192;40.182;44.516;2023-06-14T05:09:58;21.20;;;7.93;;
34988;SDS011;21192;40.182;44.516;2023-06-14T05:12:25;20.40;;;9.70;;
34988;SDS011;21192;40.182;44.516;2023-06-14T05:14:51;24.70;;;7.53;;
34988;SDS011;21192;40.182;44.516;2023-06-14T05:17:17;15.95;;;6.57;;
34988;SDS011;21192;40.182;44.516;2023-06-14T05:19:43;23.67;;;8.07;;
34988;SDS011;21192;40.182;44.516;2023-06-14T05:22:09;21.80;;;6.65;;
34988;SDS011;21192;40.182;44.516;2023-06-14T05:24:35;12.23;;;4.82;;
34988;SDS011;21192;40.182;44.516;2023-06-14T05:27:01;17.85;;;4.63;;
34988;SDS011;21192;40.182;44.516;2023-06-14T05:29:26;12.50;;;4.18;;
34988;SDS011;21192;40.182;44.516;2023-06-14T05:31:52;15.27;;;4.18;;
34988;SDS011;21192;40.182;44.516;2023-06-14T05:34:18;17.85;;;5.22;;
34988;SDS011;21192;40.182;44.516;2023-06-14T05:36:44;19.45;;;5.20;;
34988;SDS011;21192;40.182;44.516;2023-06-14T05:39:10;20.40;;;5.25;;
34988;SDS011;21192;40.182;44.516;2023-06-14T05:41:36;17.65;;;4.90;;
34988;SDS011;21192;40.182;44.516;2023-06-14T05:44:02;12.38;;;4.55;;
34988;SDS011;21192;40.182;44.516;2023-06-14T05:46:28;18.17;;;4.47;;
34988;SDS011;21192;40.182;44.516;2023-06-14T05:48:54;16.45;;;4.20;;
34988;SDS011;21192;40.182;44.516;2023-06-14T05:51:20;15.25;;;4.15;;
34988;SDS011;21192;40.182;44.516;2023-06-14T05:53:47;12.00;;;3.60;;
34988;SDS011;21192;40.182;44.516;2023-06-14T05:56:14;13.63;;;4.13;;
34988;SDS011;21192;40.182;44.516;2023-06-14T05:58:40;12.63;;;4.03;;
34988;SDS011;21192;40.182;44.516;2023-06-14T06:01:06;12.57;;;3.78;;
34988;SDS011;21192;40.182;44.516;2023-06-14T06:03:32;15.13;;;4.47;;
34988;SDS011;21192;40.182;44.516;2023-06-14T06:05:59;16.83;;;4.93;;
34988;SDS011;21192;40.182;44.516;2023-06-14T06:08:26;14.43;;;5.43;;
34988;SDS011;21192;40.182;44.516;2023-06-14T06:10:52;18.67;;;5.68;;
34988;SDS011;21192;40.182;44.516;2023-06-14T06:13:18;25.65;;;6.97;;
34988;SDS011;21192;40.182;44.516;2023-06-14T06:15:44;21.00;;;7.90;;
34988;SDS011;21192;40.182;44.516;2023-06-14T06:18:10;18.55;;;7.05;;
34988;SDS011;21192;40.182;44.516;2023-06-14T06:20:36;24.17;;;7.90;;
34988;SDS011;21192;40.182;44.516;2023-06-14T06:23:02;14.88;;;6.13;;
34988;SDS011;21192;40.182;44.516;2023-06-14T06:25:28;45.28;;;9.55;;
34988;SDS011;21192;40.182;44.516;2023-06-14T06:27:56;18.20;;;7.30;;
34988;SDS011;21192;40.182;44.516;2023-06-14T06:30:23;14.63;;;6.72;;
34988;SDS011;21192;40.182;44.516;2023-06-14T06:32:49;14.98;;;6.70;;
34988;SDS011;21192;40.182;44.516;2023-06-14T06:35:16;18.30;;;6.72;;
34988;SDS011;21192;40.182;44.516;2023-06-14T06:37:42;14.38;;;6.10;;
34988;SDS011;21192;40.182;44.516;2023-06-14T06:40:08;11.20;;;5.70;;
34988;SDS011;21192;40.182;44.516;2023-06-14T06:42:35;15.00;;;5.75;;
34988;SDS011;21192;40.182;44.516;2023-06-14T06:45:01;15.25;;;5.75;;
34988;SDS011;21192;40.182;44.516;2023-06-14T06:47:27;12.77;;;5.50;;
34988;SDS011;21192;40.182;44.516;2023-06-14T06:49:52;12.60;;;5.70;;
34988;SDS011;21192;40.182;44.516;2023-06-14T06:52:18;14.30;;;5.88;;
34988;SDS011;21192;40.182;44.516;2023-06-14T06:54:44;9.77;;;5.18;;
34988;SDS011;21192;40.182;44.516;2023-06-14T06:57:10;13.25;;;5.30;;
34988;SDS011;21192;40.182;44.516;2023-06-14T06:59:36;11.43;;;5.00;;
34988;SDS011;21192;40.182;44.516;2023-06-14T07:02:02;15.05;;;5.90;;
34988;SDS011;21192;40.182;44.516;2023-06-14T07:04:29;14.82;;;5.78;;
34988;SDS011;21192;40.182;44.516;2023-06-14T07:06:55;48.72;;;8.02;;
34988;SDS011;21192;40.182;44.516;2023-06-14T07:09:20;18.70;;;5.70;;
34988;SDS011;21192;40.182;44.516;2023-06-14T07:11:47;12.93;;;4.53;;
34988;SDS011;21192;40.182;44.516;2023-06-14T07:14:13;9.32;;;5.10;;
34988;SDS011;21192;40.182;44.516;2023-06-14T07:16:40;13.38;;;4.55;;
34988;SDS011;21192;40.182;44.516;2023-06-14T07:19:06;11.10;;;4.95;;
34988;SDS011;21192;40.182;44.516;2023-06-14T07:21:33;14.77;;;4.88;;
34988;SDS011;21192;40.182;44.516;2023-06-14T07:23:59;13.63;;;4.88;;
34988;SDS011;21192;40.182;44.516;2023-06-14T07:26:25;11.45;;;4.95;;
34988;SDS011;21192;40.182;44.516;2023-06-14T07:28:54;11.73;;;4.22;;
34988;SDS011;21192;40.182;44.516;2023-06-14T07:31:20;12.55;;;4.22;;
34988;SDS011;21192;40.182;44.516;2023-06-14T07:33:46;14.20;;;5.72;;
34988;SDS011;21192;40.182;44.516;2023-06-14T07:36:12;12.05;;;4.82;;
34988;SDS011;21192;40.182;44.516;2023-06-14T07:38:38;8.45;;;3.70;;
34988;SDS011;21192;40.182;44.516;2023-06-14T07:41:05;14.85;;;4.65;;
34988;SDS011;21192;40.182;44.516;2023-06-14T07:43:31;16.85;;;5.57;;
34988;SDS011;21192;40.182;44.516;2023-06-14T07:45:57;11.85;;;5.63;;
34988;SDS011;21192;40.182;44.516;2023-06-14T07:48:23;13.20;;;4.50;;
34988;SDS011;21192;40.182;44.516;2023-06-14T07:50:48;12.68;;;4.13;;
34988;SDS011;21192;40.182;44.516;2023-06-14T07:53:14;11.05;;;4.40;;
34988;SDS011;21192;40.182;44.516;2023-06-14T07:55:40;15.50;;;4.85;;
34988;SDS011;21192;40.182;44.516;2023-06-14T07:58:08;9.70;;;4.93;;
34988;SDS011;21192;40.182;44.516;2023-06-14T08:00:34;9.70;;;4.03;;
34988;SDS011;21192;40.182;44.516;2023-06-14T08:03:00;14.05;;;5.40;;
34988;SDS011;21192;40.182;44.516;2023-06-14T08:05:26;14.13;;;4.03;;
34988;SDS011;21192;40.182;44.516;2023-06-14T08:07:52;10.95;;;4.43;;
34988;SDS011;21192;40.182;44.516;2023-06-14T08:10:19;6.18;;;3.35;;
34988;SDS011;21192;40.182;44.516;2023-06-14T08:12:45;11.13;;;3.95;;
34988;SDS011;21192;40.182;44.516;2023-06-14T08:15:11;14.82;;;5.20;;
34988;SDS011;21192;40.182;44.516;2023-06-14T08:17:37;10.23;;;4.75;;
34988;SDS011;21192;40.182;44.516;2023-06-14T08:20:03;8.10;;;3.75;;
34988;SDS011;21192;40.182;44.516;2023-06-14T08:22:30;15.50;;;4.88;;
34988;SDS011;21192;40.182;44.516;2023-06-14T08:25:02;13.68;;;4.63;;
34988;SDS011;21192;40.182;44.516;2023-06-14T08:27:29;7.90;;;4.15;;
34988;SDS011;21192;40.182;44.516;2023-06-14T08:29:55;17.38;;;7.47;;
34988;SDS011;21192;40.182;44.516;2023-06-14T08:32:21;17.75;;;7.57;;
34988;SDS011;21192;40.182;44.516;2023-06-14T08:34:47;26.30;;;12.68;;
34988;SDS011;21192;40.182;44.516;2023-06-14T08:37:13;11.45;;;5.35;;
34988;SDS011;21192;40.182;44.516;2023-06-14T08:39:39;12.73;;;5.00;;
34988;SDS011;21192;40.182;44.516;2023-06-14T08:42:06;12.40;;;4.78;;
34988;SDS011;21192;40.182;44.516;2023-06-14T08:44:34;7.28;;;3.60;;
34988;SDS011;21192;40.182;44.516;2023-06-14T08:47:00;9.93;;;3.50;;
34988;SDS011;21192;40.182;44.516;2023-06-14T08:49:26;9.15;;;3.10;;
34988;SDS011;21192;40.182;44.516;2023-06-14T08:52:00;10.10;;;2.90;;
34988;SDS011;21192;40.182;44.516;2023-06-14T08:54:30;12.32;;;4.07;;
34988;SDS011;21192;40.182;44.516;2023-06-14T08:56:59;11.38;;;3.47;;
34988;SDS011;21192;40.182;44.516;2023-06-14T08:59:26;11.35;;;4.88;;
34988;SDS011;21192;40.182;44.516;2023-06-14T09:01:52;9.77;;;5.03;;
34988;SDS011;21192;40.182;44.516;2023-06-14T09:04:20;12.70;;;5.65;;
34988;SDS011;21192;40.182;44.516;2023-06-14T09:06:55;14.02;;;5.32;;
34988;SDS011;21192;40.182;44.516;2023-06-14T09:09:21;10.60;;;2.85;;
34988;SDS011;21192;40.182;44.516;2023-06-14T09:11:52;9.85;;;2.80;;
34988;SDS011;21192;40.182;44.516;2023-06-14T09:14:18;16.80;;;4.00;;
34988;SDS011;21192;40.182;44.516;2023-06-14T09:16:44;11.35;;;3.20;;
34988;SDS011;21192;40.182;44.516;2023-06-14T09:19:25;12.88;;;4.63;;
34988;SDS011;21192;40.182;44.516;2023-06-14T09:21:52;12.25;;;3.47;;
34988;SDS011;21192;40.182;44.516;2023-06-14T09:24:18;13.05;;;4.45;;
34988;SDS011;21192;40.182;44.516;2023-06-14T09:26:46;8.25;;;3.08;;
34988;SDS011;21192;40.182;44.516;2023-06-14T09:29:12;11.30;;;4.35;;
34988;SDS011;21192;40.182;44.516;2023-06-14T09:31:38;13.23;;;5.00;;
34988;SDS011;21192;40.182;44.516;2023-06-14T09:34:04;12.15;;;3.90;;
34988;SDS011;21192;40.182;44.516;2023-06-14T09:36:31;14.05;;;6.68;;
34988;SDS011;21192;40.182;44.516;2023-06-14T09:38:58;12.68;;;4.35;;
34988;SDS011;21192;40.182;44.516;2023-06-14T09:41:40;10.98;;;3.20;;
34988;SDS011;21192;40.182;44.516;2023-06-14T09:44:08;10.98;;;3.88;;
34988;SDS011;21192;40.182;44.516;2023-06-14T09:46:35;10.68;;;3.42;;
34988;SDS011;21192;40.182;44.516;2023-06-14T09:49:02;10.32;;;3.05;;
34988;SDS011;21192;40.182;44.516;2023-06-14T09:51:29;14.02;;;4.30;;
34988;SDS011;21192;40.182;44.516;2023-06-14T09:53:58;13.00;;;3.65;;
34988;SDS011;21192;40.182;44.516;2023-06-14T09:56:40;10.38;;;3.75;;
34988;SDS011;21192;40.182;44.516;2023-06-14T09:59:09;15.82;;;5.07;;
34988;SDS011;21192;40.182;44.516;2023-06-14T10:01:41;14.18;;;3.92;;
34988;SDS011;21192;40.182;44.516;2023-06-14T10:04:08;8.68;;;2.90;;
34988;SDS011;21192;40.182;44.516;2023-06-14T10:06:41;7.93;;;2.83;;
34988;SDS011;21192;40.182;44.516;2023-06-14T10:09:11;9.30;;;2.70;;
34988;SDS011;21192;40.182;44.516;2023-06-14T10:11:37;7.68;;;2.30;;
34988;SDS011;21192;40.182;44.516;2023-06-14T10:14:10;10.68;;;2.60;;
34988;SDS011;21192;40.182;44.516;2023-06-14T10:16:47;9.63;;;2.67;;
34988;SDS011;21192;40.182;44.516;2023-06-14T10:19:56;6.45;;;2.80;;
34988;SDS011;21192;40.182;44.516;2023-06-14T10:22:50;9.40;;;3.38;;
34988;SDS011;21192;40.182;44.516;2023-06-14T10:25:32;8.00;;;2.70;;
34988;SDS011;21192;40.182;44.516;2023-06-14T10:28:18;12.30;;;3.40;;
34988;SDS011;21192;40.182;44.516;2023-06-14T10:33:49;14.02;;;3.58;;
34988;SDS011;21192;40.182;44.516;2023-06-14T10:39:00;9.98;;;2.80;;
34988;SDS011;21192;40.182;44.516;2023-06-14T10:41:50;12.25;;;3.55;;
34988;SDS011;21192;40.182;44.516;2023-06-14T10:49:19;7.88;;;2.65;;
34988;SDS011;21192;40.182;44.516;2023-06-14T10:52:03;9.65;;;3.53;;
34988;SDS011;21192;40.182;44.516;2023-06-14T10:54:31;14.65;;;5.18;;
34988;SDS011;21192;40.182;44.516;2023-06-14T10:56:57;11.25;;;4.35;;
34988;SDS011;21192;40.182;44.516;2023-06-14T10:59:24;10.40;;;3.67;;
34988;SDS011;21192;40.182;44.516;2023-06-14T11:04:53;11.75;;;3.83;;
34988;SDS011;21192;40.182;44.516;2023-06-14T11:13:06;12.30;;;3.83;;
34988;SDS011;21192;40.182;44.516;2023-06-14T11:15:33;14.18;;;5.18;;
34988;SDS011;21192;40.182;44.516;2023-06-14T11:18:01;17.10;;;5.15;;
34988;SDS011;21192;40.182;44.516;2023-06-14T11:20:36;17.40;;;6.18;;
34988;SDS011;21192;40.182;44.516;2023-06-14T11:23:04;24.38;;;7.93;;
34988;SDS011;21192;40.182;44.516;2023-06-14T11:25:31;17.50;;;7.25;;
34988;SDS011;21192;40.182;44.516;2023-06-14T11:27:57;15.10;;;6.78;;
34988;SDS011;21192;40.182;44.516;2023-06-14T11:30:26;17.70;;;3.72;;
34988;SDS011;21192;40.182;44.516;2023-06-14T11:32:52;18.52;;;4.78;;
34988;SDS011;21192;40.182;44.516;2023-06-14T11:35:19;11.63;;;4.47;;
34988;SDS011;21192;40.182;44.516;2023-06-14T11:37:54;13.35;;;4.38;;
34988;SDS011;21192;40.182;44.516;2023-06-14T11:40:23;16.88;;;6.00;;
34988;SDS011;21192;40.182;44.516;2023-06-14T11:42:50;11.50;;;3.78;;
34988;SDS011;21192;40.182;44.516;2023-06-14T11:45:22;17.15;;;4.10;;
34988;SDS011;21192;40.182;44.516;2023-06-14T11:47:50;25.20;;;5.93;;
34988;SDS011;21192;40.182;44.516;2023-06-14T11:50:16;20.33;;;4.95;;
34988;SDS011;21192;40.182;44.516;2023-06-14T11:52:42;19.08;;;4.68;;
34988;SDS011;21192;40.182;44.516;2023-06-14T11:55:08;14.32;;;4.65;;
34988;SDS011;21192;40.182;44.516;2023-06-14T11:57:35;11.32;;;4.45;;
34988;SDS011;21192;40.182;44.516;2023-06-14T12:00:04;14.00;;;4.28;;
34988;SDS011;21192;40.182;44.516;2023-06-14T12:02:41;14.27;;;4.30;;
34988;SDS011;21192;40.182;44.516;2023-06-14T12:05:08;12.38;;;3.40;;
34988;SDS011;21192;40.182;44.516;2023-06-14T12:07:38;25.35;;;13.45;;
34988;SDS011;21192;40.182;44.516;2023-06-14T12:10:07;23.25;;;5.72;;
34988;SDS011;21192;40.182;44.516;2023-06-14T12:12:39;14.43;;;4.72;;
34988;SDS011;21192;40.182;44.516;2023-06-14T12:15:06;26.17;;;6.32;;
34988;SDS011;21192;40.182;44.516;2023-06-14T12:17:37;20.83;;;5.82;;
34988;SDS011;21192;40.182;44.516;2023-06-14T12:20:08;17.50;;;5.72;;
34988;SDS011;21192;40.182;44.516;2023-06-14T12:23:00;17.05;;;4.90;;
34988;SDS011;21192;40.182;44.516;2023-06-14T12:25:30;18.85;;;5.50;;
34988;SDS011;21192;40.182;44.516;2023-06-14T12:28:04;20.33;;;5.53;;
34988;SDS011;21192;40.182;44.516;2023-06-14T12:30:32;21.52;;;5.82;;
34988;SDS011;21192;40.182;44.516;2023-06-14T12:32:58;22.27;;;6.18;;
34988;SDS011;21192;40.182;44.516;2023-06-14T12:35:24;18.75;;;5.55;;
34988;SDS011;21192;40.182;44.516;2023-06-14T12:37:50;17.70;;;5.68;;
34988;SDS011;21192;40.182;44.516;2023-06-14T12:40:15;18.23;;;6.28;;
34988;SDS011;21192;40.182;44.516;2023-06-14T12:42:41;17.58;;;6.10;;
34988;SDS011;21192;40.182;44.516;2023-06-14T12:45:08;24.83;;;6.70;;
34988;SDS011;21192;40.182;44.516;2023-06-14T12:47:34;36.90;;;6.65;;
34988;SDS011;21192;40.182;44.516;2023-06-14T12:50:00;24.98;;;7.32;;
34988;SDS011;21192;40.182;44.516;2023-06-14T12:52:26;26.42;;;7.03;;
34988;SDS011;21192;40.182;44.516;2023-06-14T12:54:52;19.30;;;5.60;;
34988;SDS011;21192;40.182;44.516;2023-06-14T12:57:18;22.77;;;6.50;;
34988;SDS011;21192;40.182;44.516;2023-06-14T12:59:44;28.35;;;8.35;;
34988;SDS011;21192;40.182;44.516;2023-06-14T13:02:15;24.77;;;6.85;;
34988;SDS011;21192;40.182;44.516;2023-06-14T13:04:42;23.02;;;6.50;;
34988;SDS011;21192;40.182;44.516;2023-06-14T13:07:08;25.85;;;5.95;;
34988;SDS011;21192;40.182;44.516;2023-06-14T13:09:36;13.65;;;4.45;;
34988;SDS011;21192;40.182;44.516;2023-06-14T13:12:02;23.40;;;5.22;;
34988;SDS011;21192;40.182;44.516;2023-06-14T13:14:28;21.85;;;5.10;;
34988;SDS011;21192;40.182;44.516;2023-06-14T13:16:54;24.05;;;5.38;;
34988;SDS011;21192;40.182;44.516;2023-06-14T13:19:20;11.38;;;4.97;;
34988;SDS011;21192;40.182;44.516;2023-06-14T13:21:47;17.05;;;5.25;;
34988;SDS011;21192;40.182;44.516;2023-06-14T13:24:13;26.80;;;6.03;;
34988;SDS011;21192;40.182;44.516;2023-06-14T13:26:39;16.35;;;4.55;;
34988;SDS011;21192;40.182;44.516;2023-06-14T13:29:05;25.10;;;5.63;;
34988;SDS011;21192;40.182;44.516;2023-06-14T13:31:31;19.42;;;5.38;;
34988;SDS011;21192;40.182;44.516;2023-06-14T13:33:57;19.20;;;5.72;;
34988;SDS011;21192;40.182;44.516;2023-06-14T13:36:23;16.73;;;4.70;;
34988;SDS011;21192;40.182;44.516;2023-06-14T13:38:49;21.77;;;5.57;;
34988;SDS011;21192;40.182;44.516;2023-06-14T13:41:16;20.90;;;4.85;;
34988;SDS011;21192;40.182;44.516;2023-06-14T13:43:42;19.13;;;5.72;;
34988;SDS011;21192;40.182;44.516;2023-06-14T13:46:08;19.80;;;5.65;;
34988;SDS011;21192;40.182;44.516;2023-06-14T13:48:34;17.38;;;4.70;;
34988;SDS011;21192;40.182;44.516;2023-06-14T13:51:00;16.52;;;6.30;;
34988;SDS011;21192;40.182;44.516;2023-06-14T13:53:26;15.45;;;5.07;;
34988;SDS011;21192;40.182;44.516;2023-06-14T13:55:52;19.80;;;5.07;;
34988;SDS011;21192;40.182;44.516;2023-06-14T13:58:18;21.15;;;5.03;;
34988;SDS011;21192;40.182;44.516;2023-06-14T14:00:44;15.65;;;5.18;;
34988;SDS011;21192;40.182;44.516;2023-06-14T14:03:10;21.67;;;5.55;;
34988;SDS011;21192;40.182;44.516;2023-06-14T14:05:36;22.35;;;5.78;;
34988;SDS011;21192;40.182;44.516;2023-06-14T14:08:02;13.90;;;5.00;;
34988;SDS011;21192;40.182;44.516;2023-06-14T14:10:29;19.15;;;6.40;;
34988;SDS011;21192;40.182;44.516;2023-06-14T14:12:55;15.15;;;5.78;;
34988;SDS011;21192;40.182;44.516;2023-06-14T14:15:21;23.73;;;6.55;;
34988;SDS011;21192;40.182;44.516;2023-06-14T14:17:47;29.88;;;7.55;;
34988;SDS011;21192;40.182;44.516;2023-06-14T14:20:13;29.40;;;7.15;;
34988;SDS011;21192;40.182;44.516;2023-06-14T14:22:41;38.53;;;9.60;;
34988;SDS011;21192;40.182;44.516;2023-06-14T14:25:08;25.02;;;8.35;;
34988;SDS011;21192;40.182;44.516;2023-06-14T14:27:34;26.65;;;7.55;;
34988;SDS011;21192;40.182;44.516;2023-06-14T14:30:00;21.38;;;7.65;;
34988;SDS011;21192;40.182;44.516;2023-06-14T14:32:26;27.23;;;7.20;;
34988;SDS011;21192;40.182;44.516;2023-06-14T14:34:54;23.58;;;7.15;;
34988;SDS011;21192;40.182;44.516;2023-06-14T14:37:20;19.73;;;6.63;;
34988;SDS011;21192;40.182;44.516;2023-06-14T14:39:46;31.45;;;7.57;;
34988;SDS011;21192;40.182;44.516;2023-06-14T14:42:12;26.85;;;7.30;;
34988;SDS011;21192;40.182;44.516;2023-06-14T14:44:38;23.95;;;7.55;;
34988;SDS011;21192;40.182;44.516;2023-06-14T14:47:05;20.08;;;7.22;;